sensor_id;sensor_type;location;lat;lon;timestamp;pressure;altitude;pressure_sealevel;temperature;humidity
34979;BME280;21185;50.978;13.720;2023-04-06T00:02:29;98692.72;;;4.02;53.75
34979;BME280;21185;50.978;13.720;2023-04-06T00:07:31;98685.97;;;4.01;53.73
34979;BME280;21185;50.978;13.720;2023-04-06T00:12:35;98689.47;;;4.00;53.74
34979;BME280;21185;50.978;13.720;2023-04-06T00:17:37;98690.59;;;3.96;54.05
34979;BME280;21185;50.978;13.720;2023-04-06T00:22:38;98683.94;;;3.93;54.18
34979;BME280;21185;50.978;13.720;2023-04-06T00:27:41;98685.19;;;3.87;53.92
34979;BME280;21185;50.978;13.720;2023-04-06T00:32:43;98688.00;;;3.84;53.84
34979;BME280;21185;50.978;13.720;2023-04-06T00:37:46;98683.91;;;3.82;53.94
34979;BME280;21185;50.978;13.720;2023-04-06T00:42:50;98672.09;;;3.79;53.83
34979;BME280;21185;50.978;13.720;2023-04-06T00:47:52;98675.69;;;3.77;53.96
34979;BME280;21185;50.978;13.720;2023-04-06T00:52:54;98680.22;;;3.73;54.11
34979;BME280;21185;50.978;13.720;2023-04-06T00:58:01;98681.28;;;3.71;53.95
34979;BME280;21185;50.978;13.720;2023-04-06T01:03:09;98682.31;;;3.68;54.00
34979;BME280;21185;50.978;13.720;2023-04-06T01:08:15;98681.59;;;3.66;54.12
34979;BME280;21185;50.978;13.720;2023-04-06T01:13:17;98676.69;;;3.63;54.10
34979;BME280;21185;50.978;13.720;2023-04-06T01:18:29;98675.88;;;3.63;54.01
34979;BME280;21185;50.978;13.720;2023-04-06T01:23:51;98674.56;;;3.57;54.14
34979;BME280;21185;50.978;13.720;2023-04-06T01:29:00;98672.19;;;3.54;54.10
34979;BME280;21185;50.978;13.720;2023-04-06T01:34:04;98669.63;;;3.54;54.27
34979;BME280;21185;50.978;13.720;2023-04-06T01:39:07;98666.34;;;3.52;54.42
34979;BME280;21185;50.978;13.720;2023-04-06T01:44:16;98666.47;;;3.50;54.07
34979;BME280;21185;50.978;13.720;2023-04-06T01:49:20;98669.97;;;3.49;54.29
34979;BME280;21185;50.978;13.720;2023-04-06T01:54:28;98660.03;;;3.45;54.14
34979;BME280;21185;50.978;13.720;2023-04-06T01:59:52;98661.16;;;3.41;54.40
34979;BME280;21185;50.978;13.720;2023-04-06T02:05:14;98661.59;;;3.35;54.20
34979;BME280;21185;50.978;13.720;2023-04-06T02:10:17;98663.44;;;3.33;54.21
34979;BME280;21185;50.978;13.720;2023-04-06T02:15:20;98654.44;;;3.27;54.20
34979;BME280;21185;50.978;13.720;2023-04-06T02:20:22;98660.59;;;3.24;54.54
34979;BME280;21185;50.978;13.720;2023-04-06T02:25:24;98654.03;;;3.20;54.35
34979;BME280;21185;50.978;13.720;2023-04-06T02:30:26;98654.38;;;3.16;54.56
34979;BME280;21185;50.978;13.720;2023-04-06T02:35:30;98658.78;;;3.14;54.67
34979;BME280;21185;50.978;13.720;2023-04-06T02:40:32;98653.03;;;3.10;54.59
34979;BME280;21185;50.978;13.720;2023-04-06T02:45:43;98648.84;;;3.09;54.44
34979;BME280;21185;50.978;13.720;2023-04-06T02:50:46;98652.31;;;3.08;54.58
34979;BME280;21185;50.978;13.720;2023-04-06T02:55:48;98647.31;;;3.07;54.65
34979;BME280;21185;50.978;13.720;2023-04-06T03:00:50;98651.63;;;3.06;54.64
34979;BME280;21185;50.978;13.720;2023-04-06T03:05:53;98649.25;;;3.03;54.72
34979;BME280;21185;50.978;13.720;2023-04-06T03:11:01;98656.25;;;3.01;54.71
34979;BME280;21185;50.978;13.720;2023-04-06T03:16:10;98653.88;;;2.98;54.74
34979;BME280;21185;50.978;13.720;2023-04-06T03:21:14;98647.13;;;2.97;54.87
34979;BME280;21185;50.978;13.720;2023-04-06T03:26:23;98642.19;;;2.94;54.85
34979;BME280;21185;50.978;13.720;2023-04-06T03:31:27;98655.22;;;2.91;54.87
34979;BME280;21185;50.978;13.720;2023-04-06T03:36:34;98664.75;;;2.89;54.91
34979;BME280;21185;50.978;13.720;2023-04-06T03:41:38;98661.50;;;2.87;54.77
34979;BME280;21185;50.978;13.720;2023-04-06T03:46:52;98670.31;;;2.83;55.03
34979;BME280;21185;50.978;13.720;2023-04-06T03:51:56;98673.19;;;2.78;54.70
34979;BME280;21185;50.978;13.720;2023-04-06T03:56:58;98675.94;;;2.75;55.08
34979;BME280;21185;50.978;13.720;2023-04-06T04:02:02;98676.06;;;2.74;54.84
34979;BME280;21185;50.978;13.720;2023-04-06T04:07:04;98680.47;;;2.72;55.04
34979;BME280;21185;50.978;13.720;2023-04-06T04:12:06;98679.03;;;2.68;55.08
34979;BME280;21185;50.978;13.720;2023-04-06T04:17:09;98692.03;;;2.65;55.14
34979;BME280;21185;50.978;13.720;2023-04-06T04:22:11;98688.03;;;2.60;55.08
34979;BME280;21185;50.978;13.720;2023-04-06T04:27:15;98684.06;;;2.56;55.16
34979;BME280;21185;50.978;13.720;2023-04-06T04:32:17;98680.06;;;2.52;55.25
34979;BME280;21185;50.978;13.720;2023-04-06T04:37:20;98673.28;;;2.51;55.18
34979;BME280;21185;50.978;13.720;2023-04-06T04:42:27;98683.63;;;2.50;55.17
34979;BME280;21185;50.978;13.720;2023-04-06T04:47:32;98685.47;;;2.48;55.16
34979;BME280;21185;50.978;13.720;2023-04-06T04:52:34;98674.22;;;2.50;55.28
34979;BME280;21185;50.978;13.720;2023-04-06T04:57:56;98674.94;;;2.52;55.19
34979;BME280;21185;50.978;13.720;2023-04-06T05:03:20;98687.53;;;2.55;55.40
34979;BME280;21185;50.978;13.720;2023-04-06T05:08:31;98696.66;;;2.59;55.46
34979;BME280;21185;50.978;13.720;2023-04-06T05:13:34;98701.47;;;2.64;55.50
34979;BME280;21185;50.978;13.720;2023-04-06T05:18:42;98700.03;;;2.73;55.21
34979;BME280;21185;50.978;13.720;2023-04-06T05:23:44;98690.41;;;2.76;55.26
34979;BME280;21185;50.978;13.720;2023-04-06T05:28:46;98697.47;;;2.85;55.33
34979;BME280;21185;50.978;13.720;2023-04-06T05:33:50;98698.38;;;2.97;55.41
34979;BME280;21185;50.978;13.720;2023-04-06T05:39:03;98702.19;;;3.04;55.37
34979;BME280;21185;50.978;13.720;2023-04-06T05:44:14;98709.13;;;3.15;55.50
34979;BME280;21185;50.978;13.720;2023-04-06T05:49:20;98702.66;;;3.22;55.70
34979;BME280;21185;50.978;13.720;2023-04-06T05:54:23;98704.47;;;3.33;55.83
34979;BME280;21185;50.978;13.720;2023-04-06T05:59:30;98698.50;;;3.45;55.95
34979;BME280;21185;50.978;13.720;2023-04-06T06:04:33;98701.13;;;3.56;56.07
34979;BME280;21185;50.978;13.720;2023-04-06T06:09:36;98693.13;;;3.61;56.26
34979;BME280;21185;50.978;13.720;2023-04-06T06:15:00;98702.94;;;3.67;56.47
34979;BME280;21185;50.978;13.720;2023-04-06T06:20:09;98705.91;;;3.73;56.74
34979;BME280;21185;50.978;13.720;2023-04-06T06:25:15;98711.53;;;3.78;56.67
34979;BME280;21185;50.978;13.720;2023-04-06T06:30:19;98708.81;;;3.93;56.83
34979;BME280;21185;50.978;13.720;2023-04-06T06:35:25;98713.06;;;4.05;56.55
34979;BME280;21185;50.978;13.720;2023-04-06T06:40:27;98708.66;;;4.18;56.63
34979;BME280;21185;50.978;13.720;2023-04-06T06:45:31;98716.91;;;4.34;56.60
34979;BME280;21185;50.978;13.720;2023-04-06T06:50:33;98714.38;;;4.45;56.69
34979;BME280;21185;50.978;13.720;2023-04-06T06:55:36;98724.19;;;4.51;57.12
34979;BME280;21185;50.978;13.720;2023-04-06T07:00:38;98717.66;;;4.59;56.79
34979;BME280;21185;50.978;13.720;2023-04-06T07:05:48;98715.13;;;4.70;57.10
34979;BME280;21185;50.978;13.720;2023-04-06T07:10:57;98713.38;;;4.81;57.14
34979;BME280;21185;50.978;13.720;2023-04-06T07:15:59;98715.97;;;4.93;57.14
34979;BME280;21185;50.978;13.720;2023-04-06T07:21:02;98711.53;;;5.06;56.89
34979;BME280;21185;50.978;13.720;2023-04-06T07:26:04;98723.66;;;5.26;56.78
34979;BME280;21185;50.978;13.720;2023-04-06T07:31:06;98715.09;;;5.48;56.47
34979;BME280;21185;50.978;13.720;2023-04-06T07:36:09;98715.28;;;5.67;56.31
34979;BME280;21185;50.978;13.720;2023-04-06T07:41:11;98709.19;;;5.79;56.73
34979;BME280;21185;50.978;13.720;2023-04-06T07:46:13;98711.38;;;5.95;56.66
34979;BME280;21185;50.978;13.720;2023-04-06T07:51:15;98707.47;;;6.12;56.59
34979;BME280;21185;50.978;13.720;2023-04-06T07:56:20;98708.81;;;6.27;56.68
34979;BME280;21185;50.978;13.720;2023-04-06T08:01:23;98712.03;;;6.40;56.50
34979;BME280;21185;50.978;13.720;2023-04-06T08:06:25;98718.44;;;6.46;56.33
34979;BME280;21185;50.978;13.720;2023-04-06T08:11:27;98712.41;;;6.57;56.39
34979;BME280;21185;50.978;13.720;2023-04-06T08:16:29;98710.69;;;6.67;55.60
34979;BME280;21185;50.978;13.720;2023-04-06T08:21:32;98714.03;;;6.78;55.06
34979;BME280;21185;50.978;13.720;2023-04-06T08:26:35;98716.41;;;6.91;55.12
34979;BME280;21185;50.978;13.720;2023-04-06T08:31:36;98708.56;;;7.02;54.36
34979;BME280;21185;50.978;13.720;2023-04-06T08:36:39;98706.72;;;7.14;54.11
34979;BME280;21185;50.978;13.720;2023-04-06T08:41:44;98711.94;;;7.24;53.51
34979;BME280;21185;50.978;13.720;2023-04-06T08:46:46;98701.50;;;7.35;53.36
34979;BME280;21185;50.978;13.720;2023-04-06T08:51:49;98707.25;;;7.48;53.30
34979;BME280;21185;50.978;13.720;2023-04-06T08:56:52;98708.09;;;7.58;52.69
34979;BME280;21185;50.978;13.720;2023-04-06T09:01:55;98706.59;;;7.65;52.53
34979;BME280;21185;50.978;13.720;2023-04-06T09:06:57;98710.97;;;7.74;52.37
34979;BME280;21185;50.978;13.720;2023-04-06T09:11:59;98706.63;;;7.85;51.88
34979;BME280;21185;50.978;13.720;2023-04-06T09:17:07;98708.41;;;7.94;51.53
34979;BME280;21185;50.978;13.720;2023-04-06T09:22:09;98699.72;;;8.04;51.02
34979;BME280;21185;50.978;13.720;2023-04-06T09:27:12;98698.91;;;8.13;50.93
34979;BME280;21185;50.978;13.720;2023-04-06T09:32:14;98696.72;;;8.28;50.76
34979;BME280;21185;50.978;13.720;2023-04-06T09:37:18;98685.97;;;8.42;50.38
34979;BME280;21185;50.978;13.720;2023-04-06T09:42:24;98681.63;;;8.53;50.11
34979;BME280;21185;50.978;13.720;2023-04-06T09:47:32;98676.16;;;8.56;49.50
34979;BME280;21185;50.978;13.720;2023-04-06T09:52:41;98678.06;;;8.54;48.77
34979;BME280;21185;50.978;13.720;2023-04-06T09:57:55;98683.53;;;8.41;48.45
34979;BME280;21185;50.978;13.720;2023-04-06T10:03:14;98680.41;;;8.47;47.92
34979;BME280;21185;50.978;13.720;2023-04-06T10:08:24;98673.38;;;8.76;47.58
34979;BME280;21185;50.978;13.720;2023-04-06T10:13:33;98676.00;;;9.04;47.16
34979;BME280;21185;50.978;13.720;2023-04-06T10:18:35;98672.47;;;9.05;46.28
34979;BME280;21185;50.978;13.720;2023-04-06T10:23:52;98666.09;;;8.99;45.56
34979;BME280;21185;50.978;13.720;2023-04-06T10:29:04;98658.88;;;8.93;46.18
34979;BME280;21185;50.978;13.720;2023-04-06T10:34:06;98664.06;;;8.93;46.36
34979;BME280;21185;50.978;13.720;2023-04-06T10:39:09;98659.47;;;8.87;46.27
34979;BME280;21185;50.978;13.720;2023-04-06T10:44:20;98664.84;;;9.03;45.77
34979;BME280;21185;50.978;13.720;2023-04-06T10:49:24;98662.25;;;9.03;45.87
34979;BME280;21185;50.978;13.720;2023-04-06T10:54:28;98668.47;;;8.83;45.62
34979;BME280;21185;50.978;13.720;2023-04-06T10:59:30;98659.00;;;8.64;45.64
34979;BME280;21185;50.978;13.720;2023-04-06T11:04:33;98652.94;;;8.83;45.61
34979;BME280;21185;50.978;13.720;2023-04-06T11:09:35;98650.94;;;9.04;45.27
34979;BME280;21185;50.978;13.720;2023-04-06T11:14:38;98644.91;;;9.14;44.99
34979;BME280;21185;50.978;13.720;2023-04-06T11:19:40;98647.44;;;8.96;44.94
34979;BME280;21185;50.978;13.720;2023-04-06T11:24:43;98638.53;;;8.71;44.92
34979;BME280;21185;50.978;13.720;2023-04-06T11:29:45;98635.19;;;8.51;44.81
34979;BME280;21185;50.978;13.720;2023-04-06T11:34:51;98631.78;;;8.60;44.94
34979;BME280;21185;50.978;13.720;2023-04-06T11:39:54;98630.03;;;8.88;44.57
34979;BME280;21185;50.978;13.720;2023-04-06T11:44:57;98626.25;;;9.10;43.64
34979;BME280;21185;50.978;13.720;2023-04-06T11:50:10;98623.03;;;8.98;43.21
34979;BME280;21185;50.978;13.720;2023-04-06T11:55:14;98618.34;;;8.84;43.87
34979;BME280;21185;50.978;13.720;2023-04-06T12:00:17;98628.44;;;8.77;44.10
34979;BME280;21185;50.978;13.720;2023-04-06T12:05:19;98617.41;;;8.75;44.26
34979;BME280;21185;50.978;13.720;2023-04-06T12:10:21;98612.38;;;8.74;44.09
34979;BME280;21185;50.978;13.720;2023-04-06T12:15:26;98613.25;;;8.92;43.66
34979;BME280;21185;50.978;13.720;2023-04-06T12:20:28;98610.16;;;9.16;43.68
34979;BME280;21185;50.978;13.720;2023-04-06T12:25:32;98589.16;;;9.37;43.40
34979;BME280;21185;50.978;13.720;2023-04-06T12:30:35;98585.09;;;9.52;43.33
34979;BME280;21185;50.978;13.720;2023-04-06T12:35:37;98578.88;;;9.63;43.12
34979;BME280;21185;50.978;13.720;2023-04-06T12:40:39;98580.53;;;9.64;42.68
34979;BME280;21185;50.978;13.720;2023-04-06T12:45:41;98567.19;;;9.77;42.66
34979;BME280;21185;50.978;13.720;2023-04-06T12:50:43;98559.03;;;9.89;42.70
34979;BME280;21185;50.978;13.720;2023-04-06T12:55:45;98559.03;;;9.89;42.25
34979;BME280;21185;50.978;13.720;2023-04-06T13:00:48;98572.84;;;9.98;42.17
34979;BME280;21185;50.978;13.720;2023-04-06T13:05:50;98557.66;;;10.03;42.02
34979;BME280;21185;50.978;13.720;2023-04-06T13:10:53;98554.75;;;10.06;41.68
34979;BME280;21185;50.978;13.720;2023-04-06T13:16:01;98552.72;;;9.92;41.73
34979;BME280;21185;50.978;13.720;2023-04-06T13:21:05;98560.06;;;9.79;41.63
34979;BME280;21185;50.978;13.720;2023-04-06T13:26:08;98544.16;;;9.73;41.44
34979;BME280;21185;50.978;13.720;2023-04-06T13:31:10;98545.88;;;9.65;41.51
34979;BME280;21185;50.978;13.720;2023-04-06T13:36:12;98543.81;;;9.51;41.56
34979;BME280;21185;50.978;13.720;2023-04-06T13:41:20;98538.25;;;9.46;41.36
34979;BME280;21185;50.978;13.720;2023-04-06T13:46:23;98533.44;;;9.51;41.22
34979;BME280;21185;50.978;13.720;2023-04-06T13:51:25;98533.88;;;9.46;41.25
34979;BME280;21185;50.978;13.720;2023-04-06T13:56:31;98523.16;;;9.41;41.33
34979;BME280;21185;50.978;13.720;2023-04-06T14:01:33;98527.44;;;9.50;41.38
34979;BME280;21185;50.978;13.720;2023-04-06T14:06:35;98515.69;;;9.56;41.22
34979;BME280;21185;50.978;13.720;2023-04-06T14:11:37;98514.25;;;9.61;41.33
34979;BME280;21185;50.978;13.720;2023-04-06T14:16:40;98520.78;;;9.65;41.20
34979;BME280;21185;50.978;13.720;2023-04-06T14:21:42;98518.84;;;9.67;40.94
34979;BME280;21185;50.978;13.720;2023-04-06T14:26:45;98519.38;;;9.71;40.94
34979;BME280;21185;50.978;13.720;2023-04-06T14:31:47;98515.19;;;9.78;40.90
34979;BME280;21185;50.978;13.720;2023-04-06T14:36:49;98514.59;;;9.84;41.11
34979;BME280;21185;50.978;13.720;2023-04-06T14:41:51;98508.50;;;9.93;41.17
34979;BME280;21185;50.978;13.720;2023-04-06T14:46:53;98497.72;;;10.06;41.00
34979;BME280;21185;50.978;13.720;2023-04-06T14:51:55;98507.84;;;10.17;41.05
34979;BME280;21185;50.978;13.720;2023-04-06T14:56:57;98497.69;;;10.24;40.82
34979;BME280;21185;50.978;13.720;2023-04-06T15:02:01;98496.41;;;10.28;40.59
34979;BME280;21185;50.978;13.720;2023-04-06T15:07:03;98500.16;;;10.33;40.58
34979;BME280;21185;50.978;13.720;2023-04-06T15:12:05;98496.63;;;10.34;40.59
34979;BME280;21185;50.978;13.720;2023-04-06T15:17:08;98496.63;;;10.34;40.54
34979;BME280;21185;50.978;13.720;2023-04-06T15:22:10;98487.06;;;10.35;40.37
34979;BME280;21185;50.978;13.720;2023-04-06T15:27:13;98489.50;;;10.36;40.49
34979;BME280;21185;50.978;13.720;2023-04-06T15:32:14;98494.03;;;10.43;40.24
34979;BME280;21185;50.978;13.720;2023-04-06T15:37:16;98489.03;;;10.49;40.17
34979;BME280;21185;50.978;13.720;2023-04-06T15:42:18;98479.97;;;10.53;40.21
34979;BME280;21185;50.978;13.720;2023-04-06T15:47:20;98488.09;;;10.58;40.29
34979;BME280;21185;50.978;13.720;2023-04-06T15:52:22;98487.25;;;10.50;40.32
34979;BME280;21185;50.978;13.720;2023-04-06T15:57:24;98484.31;;;10.36;40.09
34979;BME280;21185;50.978;13.720;2023-04-06T16:02:27;98489.28;;;10.30;40.25
34979;BME280;21185;50.978;13.720;2023-04-06T16:07:29;98490.72;;;10.24;40.15
34979;BME280;21185;50.978;13.720;2023-04-06T16:12:32;98487.31;;;10.24;40.13
34979;BME280;21185;50.978;13.720;2023-04-06T16:17:34;98487.75;;;10.19;40.24
34979;BME280;21185;50.978;13.720;2023-04-06T16:22:36;98483.34;;;10.12;40.06
34979;BME280;21185;50.978;13.720;2023-04-06T16:27:38;98490.72;;;9.98;40.12
34979;BME280;21185;50.978;13.720;2023-04-06T16:32:41;98486.84;;;9.77;40.37
34979;BME280;21185;50.978;13.720;2023-04-06T16:37:44;98494.66;;;9.59;40.58
34979;BME280;21185;50.978;13.720;2023-04-06T16:42:47;98495.03;;;9.46;40.78
34979;BME280;21185;50.978;13.720;2023-04-06T16:47:49;98493.50;;;9.35;41.09
34979;BME280;21185;50.978;13.720;2023-04-06T16:52:51;98495.50;;;9.24;41.19
34979;BME280;21185;50.978;13.720;2023-04-06T16:57:54;98499.63;;;9.17;41.22
34979;BME280;21185;50.978;13.720;2023-04-06T17:02:56;98498.59;;;9.09;41.32
34979;BME280;21185;50.978;13.720;2023-04-06T17:07:59;98494.97;;;9.02;41.28
34979;BME280;21185;50.978;13.720;2023-04-06T17:13:00;98489.72;;;8.94;41.25
34979;BME280;21185;50.978;13.720;2023-04-06T17:18:02;98492.06;;;8.88;41.30
34979;BME280;21185;50.978;13.720;2023-04-06T17:23:04;98500.56;;;8.80;40.92
34979;BME280;21185;50.978;13.720;2023-04-06T17:28:06;98496.91;;;8.73;41.12
34979;BME280;21185;50.978;13.720;2023-04-06T17:33:08;98503.63;;;8.66;41.18
34979;BME280;21185;50.978;13.720;2023-04-06T17:38:10;98502.44;;;8.60;41.43
34979;BME280;21185;50.978;13.720;2023-04-06T17:43:12;98512.81;;;8.51;41.41
34979;BME280;21185;50.978;13.720;2023-04-06T17:48:14;98519.81;;;8.40;41.55
34979;BME280;21185;50.978;13.720;2023-04-06T17:53:16;98527.03;;;8.27;41.97
34979;BME280;21185;50.978;13.720;2023-04-06T17:58:20;98524.91;;;8.13;42.04
34979;BME280;21185;50.978;13.720;2023-04-06T18:03:23;98526.03;;;8.01;42.33
34979;BME280;21185;50.978;13.720;2023-04-06T18:08:25;98535.72;;;7.89;42.59
34979;BME280;21185;50.978;13.720;2023-04-06T18:13:27;98536.69;;;7.78;42.64
34979;BME280;21185;50.978;13.720;2023-04-06T18:18:28;98543.63;;;7.68;42.87
34979;BME280;21185;50.978;13.720;2023-04-06T18:23:32;98547.84;;;7.60;43.21
34979;BME280;21185;50.978;13.720;2023-04-06T18:28:36;98547.84;;;7.50;43.63
34979;BME280;21185;50.978;13.720;2023-04-06T18:33:37;98551.22;;;7.41;43.66
34979;BME280;21185;50.978;13.720;2023-04-06T18:38:45;98556.94;;;7.35;43.93
34979;BME280;21185;50.978;13.720;2023-04-06T18:43:50;98553.25;;;7.28;43.95
34979;BME280;21185;50.978;13.720;2023-04-06T18:48:51;98561.69;;;7.20;44.27
34979;BME280;21185;50.978;13.720;2023-04-06T18:53:53;98565.75;;;7.13;44.14
34979;BME280;21185;50.978;13.720;2023-04-06T18:58:55;98568.97;;;7.05;44.64
34979;BME280;21185;50.978;13.720;2023-04-06T19:03:58;98566.13;;;6.99;44.67
34979;BME280;21185;50.978;13.720;2023-04-06T19:09:01;98564.06;;;6.93;45.13
34979;BME280;21185;50.978;13.720;2023-04-06T19:14:05;98569.63;;;6.88;45.08
34979;BME280;21185;50.978;13.720;2023-04-06T19:19:07;98570.00;;;6.83;45.27
34979;BME280;21185;50.978;13.720;2023-04-06T19:24:10;98558.31;;;6.79;45.14
34979;BME280;21185;50.978;13.720;2023-04-06T19:29:12;98555.31;;;6.74;45.18
34979;BME280;21185;50.978;13.720;2023-04-06T19:34:14;98558.97;;;6.72;45.31
34979;BME280;21185;50.978;13.720;2023-04-06T19:39:18;98560.19;;;6.68;45.53
34979;BME280;21185;50.978;13.720;2023-04-06T19:44:20;98560.72;;;6.62;45.54
34979;BME280;21185;50.978;13.720;2023-04-06T19:49:22;98563.81;;;6.56;45.77
34979;BME280;21185;50.978;13.720;2023-04-06T19:54:24;98565.00;;;6.52;45.57
34979;BME280;21185;50.978;13.720;2023-04-06T19:59:26;98560.25;;;6.47;45.75
34979;BME280;21185;50.978;13.720;2023-04-06T20:04:28;98558.88;;;6.43;45.91
34979;BME280;21185;50.978;13.720;2023-04-06T20:09:30;98563.47;;;6.39;45.93
34979;BME280;21185;50.978;13.720;2023-04-06T20:14:32;98557.88;;;6.34;45.95
34979;BME280;21185;50.978;13.720;2023-04-06T20:19:34;98565.88;;;6.31;46.27
34979;BME280;21185;50.978;13.720;2023-04-06T20:24:36;98568.94;;;6.25;46.44
34979;BME280;21185;50.978;13.720;2023-04-06T20:29:38;98567.56;;;6.21;46.28
34979;BME280;21185;50.978;13.720;2023-04-06T20:34:41;98568.91;;;6.15;46.62
34979;BME280;21185;50.978;13.720;2023-04-06T20:39:43;98559.91;;;6.10;46.80
34979;BME280;21185;50.978;13.720;2023-04-06T20:44:45;98554.19;;;6.06;46.80
34979;BME280;21185;50.978;13.720;2023-04-06T20:49:47;98560.44;;;6.04;46.87
34979;BME280;21185;50.978;13.720;2023-04-06T20:54:49;98564.88;;;6.02;46.85
34979;BME280;21185;50.978;13.720;2023-04-06T20:59:52;98564.31;;;5.98;46.79
34979;BME280;21185;50.978;13.720;2023-04-06T21:04:53;98551.69;;;5.95;46.98
34979;BME280;21185;50.978;13.720;2023-04-06T21:09:56;98551.94;;;5.92;47.01
34979;BME280;21185;50.978;13.720;2023-04-06T21:14:58;98551.34;;;5.89;47.14
34979;BME280;21185;50.978;13.720;2023-04-06T21:20:00;98549.16;;;5.84;47.28
34979;BME280;21185;50.978;13.720;2023-04-06T21:25:02;98555.63;;;5.78;47.51
34979;BME280;21185;50.978;13.720;2023-04-06T21:30:04;98553.53;;;5.72;47.59
34979;BME280;21185;50.978;13.720;2023-04-06T21:35:06;98548.63;;;5.69;47.53
34979;BME280;21185;50.978;13.720;2023-04-06T21:40:09;98549.72;;;5.67;47.57
34979;BME280;21185;50.978;13.720;2023-04-06T21:45:11;98547.25;;;5.65;47.66
34979;BME280;21185;50.978;13.720;2023-04-06T21:50:13;98549.13;;;5.63;47.59
34979;BME280;21185;50.978;13.720;2023-04-06T21:55:15;98544.25;;;5.60;47.58
34979;BME280;21185;50.978;13.720;2023-04-06T22:00:20;98539.34;;;5.57;47.70
34979;BME280;21185;50.978;13.720;2023-04-06T22:05:21;98538.66;;;5.55;48.01
34979;BME280;21185;50.978;13.720;2023-04-06T22:10:23;98533.19;;;5.48;47.82
34979;BME280;21185;50.978;13.720;2023-04-06T22:15:25;98536.94;;;5.44;47.92
34979;BME280;21185;50.978;13.720;2023-04-06T22:20:28;98536.38;;;5.41;48.04
34979;BME280;21185;50.978;13.720;2023-04-06T22:25:30;98528.91;;;5.38;48.12
34979;BME280;21185;50.978;13.720;2023-04-06T22:30:32;98533.09;;;5.39;47.99
34979;BME280;21185;50.978;13.720;2023-04-06T22:35:34;98522.13;;;5.37;48.21
34979;BME280;21185;50.978;13.720;2023-04-06T22:40:36;98517.22;;;5.34;48.04
34979;BME280;21185;50.978;13.720;2023-04-06T22:45:38;98522.47;;;5.32;48.36
34979;BME280;21185;50.978;13.720;2023-04-06T22:50:40;98523.53;;;5.30;48.33
34979;BME280;21185;50.978;13.720;2023-04-06T22:55:42;98521.09;;;5.28;48.31
34979;BME280;21185;50.978;13.720;2023-04-06T23:00:44;98513.50;;;5.27;48.19
34979;BME280;21185;50.978;13.720;2023-04-06T23:05:46;98509.97;;;5.28;48.35
34979;BME280;21185;50.978;13.720;2023-04-06T23:10:49;98515.00;;;5.29;48.43
34979;BME280;21185;50.978;13.720;2023-04-06T23:15:51;98509.75;;;5.31;48.39
34979;BME280;21185;50.978;13.720;2023-04-06T23:20:56;98508.81;;;5.32;48.44
34979;BME280;21185;50.978;13.720;2023-04-06T23:25:58;98501.91;;;5.32;48.31
34979;BME280;21185;50.978;13.720;2023-04-06T23:30:59;98504.34;;;5.34;48.65
34979;BME280;21185;50.978;13.720;2023-04-06T23:36:02;98497.56;;;5.33;48.63
34979;BME280;21185;50.978;13.720;2023-04-06T23:41:04;98490.78;;;5.32;48.87
34979;BME280;21185;50.978;13.720;2023-04-06T23:46:06;98489.84;;;5.33;48.74
34979;BME280;21185;50.978;13.720;2023-04-06T23:51:09;98491.72;;;5.31;48.96
34979;BME280;21185;50.978;13.720;2023-04-06T23:56:11;98490.47;;;5.25;49.27
